Time;durP1;ratioP1;P1;durP2;ratioP2;P2;SDS_P1;SDS_P2;PMS_P1;PMS_P2;Temp;Humidity;BMP_temperature;BMP_pressure;BME280_temperature;BME280_humidity;BME280_pressure;Samples;Min_cycle;Max_cycle;Signal;HPM_P1;HPM_P2
2023/08/23 00:04:36;;;;;;;8.10;3.97;;;16.80;1.00;;;;;;9942714;29;20208;-85
2023/08/23 00:09:58;;;;;;;7.40;3.40;;;16.80;1.00;;;;;;9945924;29;20252;-89
2023/08/23 00:15:19;;;;;;;7.53;3.30;;;16.80;1.00;;;;;;9943182;29;20207;-88
2023/08/23 00:20:40;;;;;;;5.75;3.25;;;16.80;1.00;;;;;;9932932;29;20287;-84
2023/08/23 00:26:01;;;;;;;4.78;3.38;;;17.00;33.70;;;;;;9943685;29;20201;-87
2023/08/23 00:31:23;;;;;;;9.45;4.88;;;16.80;1.00;;;;;;9948010;29;20225;-84
2023/08/23 00:36:46;;;;;;;9.13;4.93;;;;;;;;;;9945946;29;20246;-82
2023/08/23 00:42:07;;;;;;;14.40;4.82;;;16.50;1.00;;;;;;9930030;30;20258;-84
2023/08/23 00:47:29;;;;;;;10.77;4.95;;;16.40;39.60;;;;;;9916144;30;20308;-83
2023/08/23 00:52:51;;;;;;;9.25;5.40;;;16.30;99.90;;;;;;9919887;30;20212;-85
2023/08/23 00:58:13;;;;;;;8.63;4.68;;;16.20;99.90;;;;;;9941611;29;20280;-82
2023/08/23 01:03:35;;;;;;;12.70;5.32;;;16.20;99.90;;;;;;9943457;29;20205;-78
2023/08/23 01:09:24;;;;;;;11.52;4.70;;;16.20;99.90;;;;;;9941242;29;20607;-84
2023/08/23 01:14:54;;;;;;;11.27;5.18;;;16.20;99.90;;;;;;9941167;29;20215;-81
2023/08/23 01:20:17;;;;;;;8.48;4.13;;;16.10;99.90;;;;;;9941348;29;20201;-89
2023/08/23 01:25:49;;;;;;;8.50;4.68;;;16.20;99.90;;;;;;9916783;29;20397;-86
2023/08/23 01:31:12;;;;;;;7.22;3.25;;;16.20;99.90;;;;;;9903907;30;20296;-85
2023/08/23 01:36:36;;;;;;;3.63;2.55;;;16.40;1.00;;;;;;9918734;29;20217;-89
2023/08/23 01:41:58;;;;;;;2.97;1.67;;;16.60;1.00;;;;;;9920401;29;20205;-86
2023/08/23 01:47:19;;;;;;;4.00;1.77;;;16.70;1.00;;;;;;9942836;29;20609;-88
2023/08/23 01:52:40;;;;;;;2.30;1.48;;;16.80;1.00;;;;;;9921388;30;20284;-87
2023/08/23 01:58:01;;;;;;;2.33;1.35;;;16.90;1.00;;;;;;9947703;29;20201;-82
2023/08/23 02:03:23;;;;;;;2.83;1.50;;;16.90;1.00;;;;;;9935175;29;20209;-84
2023/08/23 02:08:44;;;;;;;2.58;1.33;;;17.00;1.00;;;;;;9921768;29;20252;-79
2023/08/23 02:14:05;;;;;;;4.75;1.67;;;16.90;1.00;;;;;;9921306;30;20581;-83
2023/08/23 02:19:27;;;;;;;2.97;1.60;;;16.90;1.00;;;;;;9949125;29;20229;-82
2023/08/23 02:24:48;;;;;;;4.03;1.83;;;16.80;1.00;;;;;;9948845;29;20216;-82
2023/08/23 02:30:10;;;;;;;2.22;1.63;;;16.80;1.00;;;;;;9948604;29;20248;-86
2023/08/23 02:35:31;;;;;;;2.20;1.67;;;16.80;1.00;;;;;;9933647;29;20404;-88
2023/08/23 02:40:56;;;;;;;1.75;1.02;;;16.70;1.00;;;;;;9946334;29;20201;-85
2023/08/23 02:46:18;;;;;;;2.70;1.40;;;16.60;1.00;;;;;;9921142;30;20226;-84
2023/08/23 02:51:39;;;;;;;1.83;1.20;;;16.60;1.00;;;;;;9933459;29;20240;-83
2023/08/23 02:57:03;;;;;;;1.58;1.33;;;16.70;1.00;;;;;;9932717;29;20212;-88
2023/08/23 03:02:25;;;;;;;5.57;2.75;;;16.70;1.00;;;;;;9932080;29;20207;-86
2023/08/23 03:07:46;;;;;;;7.55;3.40;;;16.40;1.00;;;;;;9945213;29;20232;-85
2023/08/23 03:13:09;;;;;;;5.22;3.38;;;16.10;1.00;;;;;;9945182;29;20243;-88
2023/08/23 03:18:30;;;;;;;7.32;3.20;;;;;;;;;;9932868;30;20280;-84
2023/08/23 03:23:52;;;;;;;4.15;2.60;;;16.00;99.90;;;;;;9945011;29;20280;-83
2023/08/23 03:29:13;;;;;;;4.53;2.78;;;15.80;99.90;;;;;;9931936;30;20233;-87
2023/08/23 03:34:35;;;;;;;3.47;2.20;;;;;;;;;;9931946;29;20203;-80
2023/08/23 03:39:56;;;;;;;3.60;2.58;;;15.60;99.90;;;;;;9930723;29;20232;-78
2023/08/23 03:45:18;;;;;;;3.70;2.60;;;15.60;99.90;;;;;;9919073;29;20216;-78
2023/08/23 03:50:39;;;;;;;4.18;2.95;;;15.70;99.90;;;;;;9929242;30;20565;-78
2023/08/23 03:56:00;;;;;;;5.43;2.70;;;15.60;99.90;;;;;;9929961;30;20247;-79
2023/08/23 04:01:24;;;;;;;3.70;2.65;;;;;;;;;;9917208;30;20262;-79
2023/08/23 04:06:45;;;;;;;5.20;3.05;;;15.50;99.90;;;;;;9930735;29;20494;-82
2023/08/23 04:12:07;;;;;;;6.20;3.60;;;15.60;99.90;;;;;;9941772;29;20248;-80
2023/08/23 04:17:28;;;;;;;7.53;4.10;;;15.60;1.00;;;;;;9944362;29;20207;-80
2023/08/23 04:22:58;;;;;;;6.13;3.90;;;15.60;99.90;;;;;;9928980;29;20209;-78
2023/08/23 04:28:19;;;;;;;8.38;3.70;;;15.70;99.90;;;;;;9943821;29;20418;-79
2023/08/23 04:33:42;;;;;;;6.65;3.10;;;15.70;99.90;;;;;;9943237;29;20557;-78
2023/08/23 04:39:03;;;;;;;7.18;4.53;;;15.80;99.90;;;;;;9928478;29;20568;-77
2023/08/23 04:44:26;;;;;;;5.93;4.20;;;15.70;99.90;;;;;;9943492;29;20568;-78
2023/08/23 04:49:49;;;;;;;5.35;3.95;;;15.70;99.90;;;;;;9941177;29;20238;-79
2023/08/23 04:55:10;;;;;;;5.22;3.47;;;15.90;99.90;;;;;;9940890;29;20525;-78
2023/08/23 05:00:32;;;;;;;7.30;4.65;;;15.90;1.00;;;;;;9928327;29;20216;-78
2023/08/23 05:05:53;;;;;;;6.32;3.80;;;16.00;99.90;;;;;;9928814;30;20256;-81
2023/08/23 05:11:15;;;;;;;3.28;2.30;;;16.20;1.00;;;;;;9928037;29;20254;-79
2023/08/23 05:16:38;;;;;;;6.97;2.25;;;16.40;1.00;;;;;;9940609;29;20212;-79
2023/08/23 05:21:59;;;;;;;4.65;2.22;;;16.60;65.00;;;;;;9927663;29;20311;-84
2023/08/23 05:27:20;;;;;;;4.20;2.17;;;16.80;1.00;;;;;;9935373;29;20229;-78
2023/08/23 05:32:41;;;;;;;1.95;1.38;;;16.90;1.00;;;;;;9910226;30;20219;-82
2023/08/23 05:38:03;;;;;;;2.20;1.65;;;17.10;92.50;;;;;;9937823;29;20560;-84
2023/08/23 05:43:25;;;;;;;4.97;1.55;;;17.30;99.90;;;;;;9935231;30;20240;-83
2023/08/23 05:48:46;;;;;;;2.85;1.77;;;17.40;99.90;;;;;;9947229;29;20450;-78
2023/08/23 05:54:07;;;;;;;4.43;2.05;;;17.60;99.90;;;;;;9949225;29;20212;-78
2023/08/23 05:59:28;;;;;;;2.40;1.52;;;17.70;1.00;;;;;;9921614;30;20213;-88
2023/08/23 06:04:50;;;;;;;4.32;1.73;;;17.90;1.00;;;;;;9935365;29;20208;-80
2023/08/23 06:10:11;;;;;;;2.08;1.35;;;18.10;1.00;;;;;;9934901;29;20260;-88
2023/08/23 06:15:32;;;;;;;3.63;1.50;;;18.30;1.00;;;;;;9935404;29;20228;-87
2023/08/23 06:20:53;;;;;;;1.77;1.30;;;18.70;56.30;;;;;;9948812;29;20202;-85
2023/08/23 06:26:14;;;;;;;5.05;1.70;;;19.20;99.90;;;;;;9921387;30;20284;-88
2023/08/23 06:31:36;;;;;;;5.53;1.73;;;20.00;1.00;;;;;;9946313;29;20292;-84
2023/08/23 06:36:57;;;;;;;3.03;1.40;;;21.50;99.90;;;;;;9933858;29;20204;-84
2023/08/23 06:42:18;;;;;;;4.40;1.77;;;22.80;1.00;;;;;;9948119;29;20228;-87
2023/08/23 06:47:39;;;;;;;4.97;1.30;;;24.10;1.00;;;;;;9945565;29;20198;-83
2023/08/23 06:53:00;;;;;;;3.45;1.50;;;24.70;1.00;;;;;;9947785;29;20235;-84
2023/08/23 06:58:21;;;;;;;6.80;1.77;;;25.40;1.00;;;;;;9925488;29;20209;-88
2023/08/23 07:03:44;;;;;;;3.92;1.25;;;26.10;1.00;;;;;;9925332;29;20214;-86
2023/08/23 07:09:06;;;;;;;4.68;1.25;;;26.60;1.00;;;;;;9908207;29;20236;-79
2023/08/23 07:14:27;;;;;;;4.97;1.23;;;27.20;1.00;;;;;;9920089;29;20209;-78
2023/08/23 07:19:50;;;;;;;12.27;2.28;;;27.70;1.00;;;;;;9921713;29;20393;-81
2023/08/23 07:25:11;;;;;;;5.65;1.52;;;28.00;1.00;;;;;;9944207;29;20276;-81
2023/08/23 07:30:32;;;;;;;13.45;1.92;;;28.30;99.90;;;;;;9931938;29;20261;-78
2023/08/23 07:35:58;;;;;;;5.85;1.58;;;28.40;99.90;;;;;;9929935;29;20206;-85
2023/08/23 07:41:19;;;;;;;6.68;1.73;;;28.90;99.90;;;;;;9931801;29;20276;-81
2023/08/23 07:46:40;;;;;;;11.48;1.45;;;29.40;1.00;;;;;;9917749;29;20507;-80
2023/08/23 07:52:02;;;;;;;1.98;1.13;;;29.70;99.90;;;;;;9927930;30;20244;-88
2023/08/23 07:57:23;;;;;;;2.15;1.10;;;30.00;99.90;;;;;;9945401;29;20211;-88
2023/08/23 08:02:44;;;;;;;2.22;1.15;;;30.10;99.90;;;;;;9943135;29;20205;-83
2023/08/23 08:08:06;;;;;;;4.13;1.58;;;;;;;;;;9930256;30;20399;-90
2023/08/23 08:13:29;;;;;;;2.88;1.15;;;;;;;;;;9942268;29;20595;-90
2023/08/23 08:18:51;;;;;;;3.67;1.30;;;;;;;;;;9942708;29;20247;-85
2023/08/23 08:24:12;;;;;;;2.05;1.17;;;;;;;;;;9929609;29;20288;-80
2023/08/23 08:29:34;;;;;;;1.33;0.88;;;31.80;99.90;;;;;;9941820;29;20229;-90
2023/08/23 08:34:55;;;;;;;1.60;0.73;;;32.00;99.90;;;;;;9942158;29;20365;-86
2023/08/23 08:40:17;;;;;;;1.35;0.90;;;32.20;99.90;;;;;;9942061;29;20212;-88
2023/08/23 08:45:38;;;;;;;2.47;1.17;;;32.30;99.90;;;;;;9933371;29;20221;-88
2023/08/23 08:51:02;;;;;;;1.23;0.93;;;32.50;99.90;;;;;;9942434;29;20585;-90
2023/08/23 08:56:23;;;;;;;2.60;1.08;;;32.60;99.90;;;;;;9943805;29;20212;-83
2023/08/23 09:01:49;;;;;;;3.03;1.38;;;32.60;99.90;;;;;;9928765;29;20491;-91
2023/08/23 09:07:10;;;;;;;1.25;0.85;;;33.10;99.90;;;;;;9941312;29;20397;-86
2023/08/23 09:12:31;;;;;;;7.72;1.23;;;;;;;;;;9940977;29;20294;-86
2023/08/23 09:17:54;;;;;;;2.65;1.00;;;33.50;99.90;;;;;;9943323;29;20287;-84
2023/08/23 09:23:15;;;;;;;2.55;1.15;;;33.50;99.90;;;;;;9928431;30;20201;-85
2023/08/23 09:28:38;;;;;;;13.05;1.80;;;33.60;99.90;;;;;;9930164;29;20239;-90
2023/08/23 09:34:00;;;;;;;4.03;1.25;;;33.70;99.90;;;;;;9940690;29;20216;-82
2023/08/23 09:39:21;;;;;;;2.80;1.13;;;34.10;99.90;;;;;;9942487;29;20277;-87
2023/08/23 09:44:45;;;;;;;6.85;1.10;;;34.40;99.90;;;;;;9939772;29;20213;-81
2023/08/23 09:50:08;;;;;;;5.55;0.93;;;34.50;99.90;;;;;;9942607;29;20240;-85
2023/08/23 09:55:31;;;;;;;6.60;0.93;;;34.60;99.90;;;;;;9927332;29;20205;-80
2023/08/23 10:00:53;;;;;;;1.23;0.70;;;35.00;99.90;;;;;;9927454;30;20209;-80
2023/08/23 10:06:14;;;;;;;2.80;1.02;;;34.60;99.90;;;;;;9941784;29;20258;-79
2023/08/23 10:11:36;;;;;;;6.82;1.38;;;34.60;99.90;;;;;;9945969;29;20329;-81
2023/08/23 10:17:04;;;;;;;3.85;0.90;;;34.10;99.90;;;;;;9946177;29;20273;-81
2023/08/23 10:22:25;;;;;;;2.45;1.30;;;34.40;99.90;;;;;;9946262;29;20227;-82
2023/08/23 10:27:48;;;;;;;4.90;0.90;;;33.70;99.90;;;;;;9934358;29;20292;-81
2023/08/23 10:33:12;;;;;;;1.23;0.85;;;33.80;99.90;;;;;;9946697;29;20460;-84
2023/08/23 10:38:34;;;;;;;5.70;1.40;;;32.80;99.90;;;;;;9934042;29;20209;-87
2023/08/23 10:43:59;;;;;;;1.70;1.30;;;31.80;99.90;;;;;;9948077;29;20240;-86
2023/08/23 10:49:20;;;;;;;1.65;1.20;;;30.90;99.90;;;;;;9945751;29;20429;-87
2023/08/23 10:54:42;;;;;;;2.60;1.30;;;30.20;99.90;;;;;;9933427;29;20208;-81
2023/08/23 11:00:04;;;;;;;4.57;1.80;;;29.80;99.90;;;;;;9945481;29;20246;-84
2023/08/23 11:05:25;;;;;;;2.47;1.40;;;;;;;;;;9945088;29;20197;-82
2023/08/23 11:10:47;;;;;;;2.10;0.90;;;28.80;1.00;;;;;;9931583;29;20249;-81
2023/08/23 11:16:08;;;;;;;2.35;0.90;;;28.50;99.90;;;;;;9931390;29;20211;-86
2023/08/23 11:21:31;;;;;;;3.08;0.90;;;28.40;99.90;;;;;;9918328;29;20201;-82
2023/08/23 11:26:53;;;;;;;1.38;0.93;;;29.30;99.90;;;;;;9947661;29;20305;-80
2023/08/23 11:32:16;;;;;;;2.75;1.10;;;31.00;99.90;;;;;;9945141;29;20297;-80
2023/08/23 11:37:37;;;;;;;5.75;1.20;;;31.40;99.90;;;;;;9933272;29;20402;-87
2023/08/23 11:42:59;;;;;;;6.03;1.20;;;31.30;99.90;;;;;;9934303;29;20262;-86
2023/08/23 11:48:26;;;;;;;3.13;1.25;;;31.90;99.90;;;;;;9931094;30;20209;-87
2023/08/23 11:53:53;;;;;;;1.45;0.98;;;32.50;99.90;;;;;;9944481;29;20562;-81
2023/08/23 11:59:15;;;;;;;1.70;0.75;;;32.60;99.90;;;;;;9943250;29;20212;-81
2023/08/23 12:04:41;;;;;;;1.52;0.80;;;31.60;99.90;;;;;;9932002;29;20377;-85
2023/08/23 12:10:02;;;;;;;2.05;1.75;;;30.40;99.90;;;;;;9942373;29;20302;-83
2023/08/23 12:15:24;;;;;;;1.92;1.60;;;30.20;99.90;;;;;;9930273;29;20211;-85
2023/08/23 12:20:45;;;;;;;2.05;0.90;;;30.80;99.90;;;;;;9930387;29;20258;-88
2023/08/23 12:26:07;;;;;;;1.85;0.80;;;30.30;99.90;;;;;;9944894;29;20216;-81
2023/08/23 12:31:30;;;;;;;6.28;0.90;;;29.80;99.90;;;;;;9916778;29;20252;-80
2023/08/23 12:36:51;;;;;;;3.88;1.05;;;29.20;99.90;;;;;;9942210;29;20561;-84
2023/08/23 12:42:12;;;;;;;4.32;1.00;;;28.80;99.90;;;;;;9930603;29;20208;-81
2023/08/23 12:47:33;;;;;;;1.08;0.90;;;28.90;99.90;;;;;;9941948;29;20197;-88
2023/08/23 12:52:55;;;;;;;1.98;0.93;;;29.60;99.90;;;;;;9943408;29;20248;-83
2023/08/23 12:58:16;;;;;;;2.70;1.17;;;30.40;99.90;;;;;;9928452;29;20488;-80
2023/08/23 13:03:37;;;;;;;1.40;0.75;;;30.80;99.90;;;;;;9928556;30;20469;-80
2023/08/23 13:08:58;;;;;;;2.65;0.70;;;31.20;99.90;;;;;;9943471;29;20232;-80
2023/08/23 13:14:19;;;;;;;3.88;0.93;;;31.20;99.90;;;;;;9928107;30;20260;-81
2023/08/23 13:19:41;;;;;;;2.25;0.80;;;30.70;99.90;;;;;;9943106;29;20224;-80
2023/08/23 13:25:02;;;;;;;0.73;0.70;;;30.50;99.90;;;;;;9943542;29;20217;-87
2023/08/23 13:30:23;;;;;;;9.70;1.08;;;30.50;99.90;;;;;;9943182;29;20241;-84
2023/08/23 13:35:45;;;;;;;9.50;1.35;;;30.70;99.90;;;;;;9942720;29;20238;-88
2023/08/23 13:41:06;;;;;;;2.75;1.00;;;30.70;99.90;;;;;;9928483;29;20245;-85
2023/08/23 13:46:28;;;;;;;10.82;1.40;;;30.00;99.90;;;;;;9933536;29;20212;-87
2023/08/23 13:51:49;;;;;;;3.45;0.80;;;29.50;99.90;;;;;;9949785;29;20343;-83
2023/08/23 13:57:10;;;;;;;2.58;0.88;;;29.60;99.90;;;;;;9935777;29;20384;-87
2023/08/23 14:02:32;;;;;;;1.55;1.02;;;29.70;99.90;;;;;;9947332;29;20432;-85
2023/08/23 14:07:53;;;;;;;14.73;1.90;;;29.70;99.90;;;;;;9946953;29;20216;-82
2023/08/23 14:13:14;;;;;;;5.50;1.00;;;29.60;99.90;;;;;;9947268;29;20463;-83
2023/08/23 14:18:37;;;;;;;1.33;0.80;;;29.40;99.90;;;;;;9937058;29;20218;-80
2023/08/23 14:23:58;;;;;;;1.10;0.85;;;28.90;99.90;;;;;;9946657;29;20212;-83
2023/08/23 14:29:20;;;;;;;4.18;0.90;;;28.70;99.90;;;;;;9946770;29;20221;-90
2023/08/23 14:34:41;;;;;;;2.30;0.80;;;28.50;99.90;;;;;;9946563;29;20208;-90
2023/08/23 14:40:03;;;;;;;1.27;0.88;;;28.40;99.90;;;;;;9948548;29;20201;-80
2023/08/23 14:45:26;;;;;;;2.42;0.80;;;28.40;99.90;;;;;;9948388;29;20398;-88
2023/08/23 14:50:47;;;;;;;2.65;0.93;;;28.40;99.90;;;;;;9934028;29;20233;-85
2023/08/23 14:56:08;;;;;;;1.70;0.90;;;28.30;99.90;;;;;;9934348;29;20517;-86
2023/08/23 15:01:29;;;;;;;2.42;0.90;;;28.30;99.90;;;;;;9948486;29;20211;-85
2023/08/23 15:06:50;;;;;;;1.50;1.00;;;28.20;99.90;;;;;;9945974;29;20284;-85
2023/08/23 15:12:11;;;;;;;1.98;1.40;;;28.20;99.90;;;;;;9951030;29;20333;-81
2023/08/23 15:17:33;;;;;;;3.33;1.20;;;28.10;99.90;;;;;;9933534;29;20219;-88
2023/08/23 15:22:54;;;;;;;1.85;1.30;;;27.80;99.90;;;;;;9946925;29;20309;-86
2023/08/23 15:28:15;;;;;;;1.80;1.10;;;27.70;99.90;;;;;;9947198;29;20216;-90
2023/08/23 15:33:36;;;;;;;2.88;1.70;;;27.50;99.90;;;;;;9932141;29;20251;-79
2023/08/23 15:38:57;;;;;;;2.10;1.00;;;27.40;99.90;;;;;;9918594;30;20225;-84
2023/08/23 15:44:18;;;;;;;2.28;1.10;;;27.40;99.90;;;;;;9946032;29;20266;-81
2023/08/23 15:49:39;;;;;;;1.42;1.33;;;27.30;99.90;;;;;;9942969;29;20267;-79
2023/08/23 15:55:02;;;;;;;2.63;1.42;;;27.30;99.90;;;;;;9943330;29;20209;-79
2023/08/23 16:00:24;;;;;;;6.38;1.65;;;27.00;99.90;;;;;;9942793;29;20406;-79
2023/08/23 16:05:56;;;;;;;2.40;1.40;;;26.80;99.90;;;;;;9930164;30;20280;-80
2023/08/23 16:11:17;;;;;;;4.03;1.60;;;26.70;99.90;;;;;;9930615;30;20539;-81
2023/08/23 16:16:38;;;;;;;2.38;1.20;;;26.50;99.90;;;;;;9930846;29;20392;-80
2023/08/23 16:21:59;;;;;;;1.42;1.02;;;26.20;99.90;;;;;;9944565;29;20209;-81
2023/08/23 16:27:21;;;;;;;2.10;1.20;;;26.10;99.90;;;;;;9916674;30;20406;-79
2023/08/23 16:32:42;;;;;;;3.03;1.13;;;25.90;99.90;;;;;;9916636;30;20266;-79
2023/08/23 16:38:05;;;;;;;2.35;1.48;;;;;;;;;;9941854;29;20243;-80
2023/08/23 16:43:30;;;;;;;3.10;1.77;;;25.40;1.00;;;;;;9929645;30;20217;-79
2023/08/23 16:48:52;;;;;;;3.72;1.40;;;25.60;99.90;;;;;;9943503;29;20216;-80
2023/08/23 16:54:15;;;;;;;3.75;1.48;;;;;;;;;;9929192;30;20405;-80
2023/08/23 16:59:37;;;;;;;4.38;1.77;;;;;;;;;;9929205;30;20247;-79
2023/08/23 17:04:58;;;;;;;3.67;2.05;;;26.00;1.00;;;;;;9929279;30;20254;-79
2023/08/23 17:10:19;;;;;;;4.05;1.60;;;25.10;99.90;;;;;;9940237;29;20286;-79
2023/08/23 17:15:41;;;;;;;3.80;1.95;;;24.90;99.90;;;;;;9942886;29;20213;-79
2023/08/23 17:21:02;;;;;;;4.95;2.17;;;24.80;1.00;;;;;;9927217;29;20288;-81
2023/08/23 17:26:23;;;;;;;3.78;1.90;;;24.60;1.00;;;;;;9929337;29;20236;-79
2023/08/23 17:31:44;;;;;;;5.68;2.15;;;24.40;99.90;;;;;;9942494;29;20231;-80
2023/08/23 17:37:06;;;;;;;3.00;2.17;;;24.30;99.90;;;;;;9944274;29;20207;-79
2023/08/23 17:42:27;;;;;;;8.65;2.15;;;24.30;99.90;;;;;;9939967;30;20220;-79
2023/08/23 17:47:49;;;;;;;4.10;1.80;;;24.20;99.90;;;;;;9953810;29;20209;-80
2023/08/23 17:53:10;;;;;;;4.90;2.38;;;24.20;99.90;;;;;;9915968;29;20245;-81
2023/08/23 17:58:31;;;;;;;7.55;2.85;;;24.10;99.90;;;;;;9902453;30;20217;-79
2023/08/23 18:03:52;;;;;;;7.70;2.38;;;23.90;99.90;;;;;;9890521;30;20273;-85
2023/08/23 18:09:14;;;;;;;6.65;3.03;;;23.90;99.90;;;;;;9889980;29;20213;-80
2023/08/23 18:14:35;;;;;;;10.73;3.60;;;23.80;1.00;;;;;;9890090;29;20279;-80
2023/08/23 18:19:57;;;;;;;6.38;3.47;;;23.70;1.00;;;;;;9891455;30;20259;-88
2023/08/23 18:25:20;;;;;;;7.95;3.00;;;23.60;1.00;;;;;;9905096;30;20214;-86
2023/08/23 18:30:41;;;;;;;6.88;3.20;;;23.30;99.90;;;;;;9892958;30;20277;-83
2023/08/23 18:36:03;;;;;;;5.75;2.47;;;23.20;99.90;;;;;;9896389;29;20214;-89
2023/08/23 18:41:24;;;;;;;3.60;2.15;;;;;;;;;;9896213;30;20259;-79
2023/08/23 18:46:46;;;;;;;8.48;3.55;;;22.90;99.90;;;;;;9934458;29;20247;-88
2023/08/23 18:52:07;;;;;;;6.15;2.20;;;22.70;99.90;;;;;;9933831;29;20237;-90
2023/08/23 18:57:28;;;;;;;5.47;2.30;;;22.70;99.90;;;;;;9932971;30;20220;-80
2023/08/23 19:02:50;;;;;;;3.35;2.00;;;22.70;99.90;;;;;;9932940;30;20211;-81
2023/08/23 19:08:12;;;;;;;6.65;2.70;;;22.60;1.00;;;;;;9947292;29;20223;-88
2023/08/23 19:13:33;;;;;;;5.63;3.05;;;22.50;1.00;;;;;;9944996;29;20255;-87
2023/08/23 19:18:55;;;;;;;9.10;3.38;;;22.50;1.00;;;;;;9932112;29;20471;-84
2023/08/23 19:24:16;;;;;;;8.68;3.65;;;22.50;1.00;;;;;;9931802;29;20258;-90
2023/08/23 19:29:38;;;;;;;6.68;3.00;;;22.40;1.00;;;;;;9919671;30;20221;-91
2023/08/23 19:34:59;;;;;;;9.02;3.42;;;22.40;85.40;;;;;;9933018;29;20208;-87
2023/08/23 19:40:20;;;;;;;8.98;2.90;;;;;;;;;;9931709;30;20262;-82
2023/08/23 19:45:42;;;;;;;7.38;2.90;;;;;;;;;;9948281;29;20292;-84
2023/08/23 19:51:03;;;;;;;3.63;2.33;;;22.30;99.90;;;;;;9932014;29;20229;-87
2023/08/23 19:56:24;;;;;;;4.68;2.67;;;22.20;99.90;;;;;;9943754;29;20206;-83
2023/08/23 20:01:47;;;;;;;3.95;2.50;;;22.20;99.90;;;;;;9930745;30;20266;-88
2023/08/23 20:07:09;;;;;;;2.67;2.00;;;22.30;1.00;;;;;;9930879;30;20254;-88
2023/08/23 20:12:40;;;;;;;3.50;2.05;;;22.30;1.00;;;;;;9945755;29;20264;-79
2023/08/23 20:18:02;;;;;;;7.20;2.75;;;22.20;99.90;;;;;;9944810;29;20518;-78
2023/08/23 20:23:24;;;;;;;6.88;3.00;;;;;;;;;;9942426;29;20284;-79
2023/08/23 20:28:45;;;;;;;4.80;2.65;;;;;;;;;;9930315;29;20228;-80
2023/08/23 20:34:07;;;;;;;5.63;2.58;;;;;;;;;;9946097;29;20244;-78
2023/08/23 20:39:28;;;;;;;2.95;2.10;;;;;;;;;;9930470;30;20255;-80
2023/08/23 20:44:50;;;;;;;6.95;1.98;;;;;;;;;;9941987;29;20211;-80
2023/08/23 20:50:11;;;;;;;4.90;2.88;;;;;;;;;;9943225;29;20316;-85
2023/08/23 20:55:33;;;;;;;10.02;2.35;;;;;;;;;;9928682;29;20524;-84
2023/08/23 21:00:58;;;;;;;5.95;2.20;;;;;;;;;;9943594;29;20292;-78
2023/08/23 21:06:19;;;;;;;4.40;2.40;;;;;;;;;;9940933;29;20404;-80
2023/08/23 21:11:42;;;;;;;8.05;1.73;;;;;;;;;;9929174;30;20258;-88
2023/08/23 21:17:03;;;;;;;4.00;1.80;;;;;;;;;;9941412;29;20201;-90
2023/08/23 21:22:25;;;;;;;6.97;2.42;;;;;;;;;;9928971;30;20209;-87
2023/08/23 21:27:46;;;;;;;3.58;1.67;;;;;;;;;;9929733;30;20204;-78
2023/08/23 21:33:08;;;;;;;7.63;3.17;;;;;;;;;;9928994;30;20262;-78
2023/08/23 21:38:29;;;;;;;5.88;2.30;;;21.60;99.90;;;;;;9927688;30;20289;-77
2023/08/23 21:43:50;;;;;;;4.80;2.15;;;21.30;99.90;;;;;;9942533;29;20375;-77
2023/08/23 21:49:11;;;;;;;12.35;6.63;;;21.10;99.90;;;;;;9940183;29;20231;-78
2023/08/23 21:54:33;;;;;;;11.25;5.68;;;;;;;;;;9940058;29;20359;-78
2023/08/23 21:59:54;;;;;;;7.95;4.10;;;;;;;;;;9914655;30;20248;-80
2023/08/23 22:05:16;;;;;;;2.85;1.95;;;;;;;;;;9929260;29;20284;-89
2023/08/23 22:10:41;;;;;;;5.93;1.83;;;;;;;;;;9947383;29;20289;-78
2023/08/23 22:16:02;;;;;;;5.30;2.20;;;20.90;1.00;;;;;;9946557;29;20229;-78
2023/08/23 22:21:24;;;;;;;2.83;2.00;;;20.70;1.00;;;;;;9934939;29;20246;-78
2023/08/23 22:26:46;;;;;;;2.55;1.92;;;20.60;1.00;;;;;;9933831;30;20208;-78
2023/08/23 22:32:07;;;;;;;3.20;1.92;;;20.30;99.90;;;;;;9948337;29;20463;-78
2023/08/23 22:37:28;;;;;;;5.97;2.25;;;20.30;1.00;;;;;;9946209;29;20228;-78
2023/08/23 22:42:49;;;;;;;4.00;3.00;;;20.20;7.80;;;;;;9932833;29;20220;-78
2023/08/23 22:48:12;;;;;;;5.30;3.10;;;;;;;;;;9932652;29;20246;-78
2023/08/23 22:53:33;;;;;;;5.57;3.20;;;20.00;1.00;;;;;;9945613;29;20245;-81
2023/08/23 22:58:54;;;;;;;3.83;2.47;;;20.10;99.90;;;;;;9947679;29;20216;-82
2023/08/23 23:04:15;;;;;;;2.60;1.60;;;20.10;1.00;;;;;;9945442;29;20251;-78
2023/08/23 23:09:38;;;;;;;2.45;1.50;;;20.00;1.00;;;;;;9932476;30;20208;-78
2023/08/23 23:15:03;;;;;;;2.60;1.75;;;20.00;1.00;;;;;;9931667;29;20318;-78
2023/08/23 23:20:24;;;;;;;2.38;1.50;;;19.90;99.90;;;;;;9945844;29;20577;-80
2023/08/23 23:25:45;;;;;;;3.38;1.63;;;19.90;1.00;;;;;;9931633;30;20213;-79
2023/08/23 23:31:07;;;;;;;2.25;1.75;;;19.80;99.90;;;;;;9946421;29;20244;-80
2023/08/23 23:36:30;;;;;;;3.30;1.73;;;19.70;1.00;;;;;;9918756;30;20285;-80
2023/08/23 23:41:52;;;;;;;2.47;1.77;;;;;;;;;;9932054;29;20267;-79
2023/08/23 23:47:14;;;;;;;2.70;1.75;;;;;;;;;;9943889;29;20197;-81
2023/08/23 23:52:35;;;;;;;2.83;1.67;;;;;;;;;;9945481;29;20244;-80
2023/08/23 23:57:56;;;;;;;4.50;2.20;;;;;;;;;;9932574;29;20211;-82
